Japan Airlines Virtual Airport Information Service

Atlanta Hartsfield-Jackson International Airport

ICAO: KATL Country: United States
Latitude: 33.6367 Longitude: -84.428
Latest Arrival : AAL16 (1B) (KMIA-KATL) Latest Departure : AAL1119 (1D) (KATL-KORD)


WX CaptureLIVE
Data provided by noaa.gov | Fetched at 14:04:43

METAR : KATL 061352Z 13005KT 10SM SCT012 SCT140 BKN180 BKN250 26/21 A3006 RMK AO2 SLP169 T02610211

TAF : KATL 061330Z 0614/0718 09007KT P6SM SCT011 BKN080 TEMPO 0614/0615 BKN011 FM061600 15007KT P6SM SCT035 BKN080 FM061800 20008KT P6SM VCSH SCT050 BKN100 TEMPO 0620/0623 VRB15G25KT 4SM -TSRA BKN040CB FM070200 29004KT P6SM SCT060 BKN120 FM071400 25007KT P6SM SCT035 SCT120


Runway Data for KATL
Data provided by openaviationdata.com

Runway ID Mag Var Hdg Length Elevation Surface ILS Freq ILS Id ILS Slope
08L -3 93° 8990 ft 1026 ft Concrete 109.3 IHFW 3
08R -3 93° 9989 ft 1026 ft Concrete 109.9 IATL 3
09L -3 93° 11876 ft 1026 ft Concrete 110.5 IHZK 3
09R -3 93° 8990 ft 1026 ft Concrete 108.9 IFUN 3
26L -3 273° 9989 ft 1026 ft Concrete 108.7 IBRU 3
26R -3 273° 8990 ft 1026 ft Concrete 110.1 IGXZ 3
27L -3 273° 8990 ft 1026 ft Concrete 108.5 IFSQ 3
27R -3 273° 11876 ft 1026 ft Concrete 111.3 IAFA 3

Atlanta Hartsfield-Jackson International Airport, United States
Use only for reference purposes



Not for navigational purposes.